createdAt,value
2023-02-21T00:00:56.596Z,84.54
2023-02-21T00:03:41.638Z,84.54
2023-02-21T00:06:28.918Z,84.50
2023-02-21T00:09:14.020Z,84.20
2023-02-21T00:12:02.608Z,84.04
2023-02-21T00:14:48.081Z,84.10
2023-02-21T00:17:33.743Z,84.59
2023-02-21T00:20:19.129Z,84.68
2023-02-21T00:23:05.211Z,84.77
2023-02-21T00:25:50.557Z,84.90
2023-02-21T00:28:37.836Z,84.86
2023-02-21T00:31:23.853Z,85.04
2023-02-21T00:34:09.039Z,85.39
2023-02-21T00:36:54.071Z,85.40
2023-02-21T00:39:39.544Z,85.48
2023-02-21T00:42:24.682Z,85.80
2023-02-21T00:45:09.956Z,86.64
2023-02-21T00:47:55.227Z,86.02
2023-02-21T00:50:40.183Z,85.93
2023-02-21T00:53:25.145Z,85.99
2023-02-21T00:56:10.409Z,85.74
2023-02-21T00:58:55.297Z,85.36
2023-02-21T01:01:42.803Z,84.20
2023-02-21T01:04:28.131Z,84.66
2023-02-21T01:07:13.294Z,84.85
2023-02-21T01:09:58.750Z,85.00
2023-02-21T01:12:44.075Z,85.25
2023-02-21T01:15:33.010Z,84.32
2023-02-21T01:18:20.434Z,83.94
2023-02-21T01:21:05.971Z,84.00
2023-02-21T01:23:53.293Z,84.14
2023-02-21T01:26:38.762Z,83.79
2023-02-21T01:29:24.233Z,82.42
2023-02-21T01:32:09.782Z,82.87
2023-02-21T01:34:55.183Z,83.30
2023-02-21T01:37:40.723Z,83.44
2023-02-21T01:40:26.166Z,83.47
2023-02-21T01:43:11.036Z,82.87
2023-02-21T01:46:07.234Z,83.09
2023-02-21T01:48:53.996Z,83.40
2023-02-21T01:51:45.787Z,83.62
2023-02-21T01:54:31.208Z,83.29
2023-02-21T01:57:19.621Z,83.68
2023-02-21T02:00:05.132Z,83.42
2023-02-21T02:03:12.001Z,82.51
2023-02-21T02:05:58.967Z,81.09
2023-02-21T02:08:47.950Z,81.10
2023-02-21T02:11:46.002Z,81.45
2023-02-21T02:14:45.808Z,81.66
2023-02-21T02:17:32.682Z,81.17
2023-02-21T02:20:15.545Z,80.90
2023-02-21T02:22:58.278Z,80.61
2023-02-21T02:25:50.001Z,79.10
2023-02-21T02:28:36.568Z,78.55
2023-02-21T02:31:22.826Z,79.33
2023-02-21T02:34:12.301Z,80.40
2023-02-21T02:36:49.922Z,80.69
2023-02-21T02:39:33.003Z,80.67
2023-02-21T02:42:20.680Z,81.49
2023-02-21T02:45:00.171Z,82.55
2023-02-21T02:47:35.604Z,83.20
2023-02-21T02:50:07.854Z,83.99
2023-02-21T02:52:36.874Z,84.61
2023-02-21T02:55:31.589Z,84.90
2023-02-21T02:58:00.628Z,83.24
2023-02-21T03:00:34.471Z,83.71
2023-02-21T03:03:29.586Z,84.06
2023-02-21T03:06:36.711Z,83.65
2023-02-21T03:09:15.766Z,84.02
2023-02-21T03:12:04.439Z,84.47
2023-02-21T03:14:46.617Z,84.47
2023-02-21T03:17:18.761Z,85.04
2023-02-21T03:19:49.893Z,85.17
2023-02-21T03:22:23.678Z,85.90
2023-02-21T03:24:53.302Z,85.57
2023-02-21T03:27:25.372Z,85.95
2023-02-21T03:29:55.607Z,85.83
2023-02-21T03:32:29.726Z,85.12
2023-02-21T03:34:57.684Z,84.96
2023-02-21T03:37:32.983Z,84.29
2023-02-21T03:40:01.370Z,83.74
2023-02-21T03:42:31.513Z,82.96
2023-02-21T03:44:59.122Z,82.14
2023-02-21T03:47:26.763Z,81.67
2023-02-21T03:49:54.373Z,81.27
2023-02-21T03:52:22.411Z,81.61
2023-02-21T03:54:50.571Z,81.46
2023-02-21T03:57:18.239Z,80.79
2023-02-21T03:59:48.455Z,80.73
2023-02-21T04:02:16.458Z,79.33
2023-02-21T04:04:44.096Z,79.38
2023-02-21T04:07:12.875Z,78.87
2023-02-21T04:09:40.492Z,79.03
2023-02-21T04:12:08.657Z,77.25
2023-02-21T04:14:38.916Z,76.79
2023-02-21T04:17:06.583Z,76.52
2023-02-21T04:19:34.164Z,75.16
2023-02-21T04:22:03.054Z,75.60
2023-02-21T04:24:30.640Z,74.82
2023-02-21T04:26:58.735Z,75.08
2023-02-21T04:29:26.691Z,75.24
2023-02-21T04:31:55.652Z,74.11
2023-02-21T04:34:23.383Z,73.31
2023-02-21T04:36:51.000Z,73.45
2023-02-21T04:39:21.796Z,72.68
2023-02-21T04:41:50.023Z,72.58
2023-02-21T04:44:18.291Z,71.86
2023-02-21T04:46:45.986Z,71.41
2023-02-21T04:49:14.558Z,71.92
2023-02-21T04:51:42.139Z,71.70
2023-02-21T04:54:13.979Z,72.03
2023-02-21T04:56:41.788Z,72.22
2023-02-21T04:59:09.425Z,71.32
2023-02-21T05:01:38.124Z,71.21
2023-02-21T05:04:05.943Z,70.76
2023-02-21T05:06:36.684Z,71.16
2023-02-21T05:09:04.842Z,71.57
2023-02-21T05:11:35.856Z,70.49
2023-02-21T05:14:03.667Z,70.58
2023-02-21T05:16:31.275Z,70.51
2023-02-21T05:18:59.524Z,70.75
2023-02-21T05:21:27.169Z,70.80
2023-02-21T05:23:57.587Z,71.05
2023-02-21T05:26:31.028Z,71.33
2023-02-21T05:28:58.642Z,70.97
2023-02-21T05:31:26.389Z,69.99
2023-02-21T05:33:54.040Z,70.72
2023-02-21T05:36:25.845Z,70.05
2023-02-21T05:38:55.958Z,70.42
2023-02-21T05:41:24.236Z,70.76
2023-02-21T05:43:52.665Z,71.21
2023-02-21T05:46:28.069Z,70.34
2023-02-21T05:48:56.833Z,70.19
2023-02-21T05:51:25.044Z,69.52
2023-02-21T05:53:53.034Z,69.55
2023-02-21T05:56:22.199Z,69.81
2023-02-21T05:58:50.300Z,70.13
2023-02-21T06:01:18.122Z,70.35
2023-02-21T06:03:48.404Z,70.31
2023-02-21T06:06:19.179Z,69.81
2023-02-21T06:08:51.003Z,69.87
2023-02-21T06:11:25.775Z,70.03
2023-02-21T06:13:54.158Z,69.49
2023-02-21T06:16:22.961Z,70.15
2023-02-21T06:18:52.764Z,69.37
2023-02-21T06:21:21.024Z,68.69
2023-02-21T06:23:48.927Z,67.65
2023-02-21T06:26:18.556Z,68.28
2023-02-21T06:28:46.579Z,69.16
2023-02-21T06:31:21.026Z,68.54
2023-02-21T06:33:50.009Z,69.26
2023-02-21T06:36:23.744Z,69.42
2023-02-21T06:38:52.919Z,68.17
2023-02-21T06:41:24.599Z,68.16
2023-02-21T06:43:54.155Z,67.47
2023-02-21T06:46:25.036Z,67.32
2023-02-21T06:48:53.208Z,67.27
2023-02-21T06:51:20.889Z,66.55
2023-02-21T06:53:51.837Z,66.38
2023-02-21T06:56:19.454Z,67.04
2023-02-21T06:58:47.009Z,66.98
2023-02-21T07:01:16.924Z,66.21
2023-02-21T07:03:45.427Z,66.40
2023-02-21T07:06:13.042Z,66.27
2023-02-21T07:08:43.082Z,66.34
2023-02-21T07:11:11.039Z,65.91
2023-02-21T07:13:40.253Z,65.39
2023-02-21T07:16:08.474Z,64.72
2023-02-21T07:18:36.277Z,63.92
2023-02-21T07:21:06.604Z,63.26
2023-02-21T07:23:34.261Z,62.92
2023-02-21T07:26:04.444Z,62.77
2023-02-21T07:28:34.528Z,60.52
2023-02-21T07:31:02.268Z,59.55
2023-02-21T07:33:29.980Z,57.30
2023-02-21T07:35:59.812Z,56.28
2023-02-21T07:38:29.673Z,55.85
2023-02-21T07:41:02.091Z,54.65
2023-02-21T07:43:31.058Z,52.98
2023-02-21T07:46:01.162Z,52.94
2023-02-21T07:48:30.207Z,51.56
2023-02-21T07:50:57.817Z,48.66
2023-02-21T07:53:27.887Z,46.52
2023-02-21T07:55:55.490Z,43.72
2023-02-21T07:58:23.103Z,43.72
2023-02-21T08:00:50.852Z,41.55
2023-02-21T08:03:18.608Z,41.30
2023-02-21T08:05:48.621Z,41.29
2023-02-21T08:08:17.133Z,39.33
2023-02-21T08:10:44.826Z,38.84
2023-02-21T08:13:12.569Z,38.01
2023-02-21T08:15:42.684Z,38.87
2023-02-21T08:18:24.486Z,37.48
2023-02-21T08:20:53.070Z,37.60
2023-02-21T08:23:23.847Z,36.25
2023-02-21T08:25:53.697Z,35.96
2023-02-21T08:28:21.373Z,35.16
2023-02-21T08:30:49.000Z,34.50
2023-02-21T08:33:16.629Z,35.06
2023-02-21T08:35:44.296Z,33.00
2023-02-21T08:38:11.914Z,33.73
2023-02-21T08:40:39.594Z,36.60
2023-02-21T08:43:07.228Z,34.67
2023-02-21T08:45:34.973Z,35.00
2023-02-21T08:48:02.802Z,34.67
2023-02-21T08:50:30.835Z,33.63
2023-02-21T08:53:00.868Z,33.31
2023-02-21T08:55:28.458Z,32.52
2023-02-21T08:57:56.151Z,32.07
2023-02-21T09:00:28.442Z,33.46
2023-02-21T09:02:57.231Z,32.81
2023-02-21T09:05:29.530Z,34.46
2023-02-21T09:08:01.414Z,32.86
2023-02-21T09:10:35.342Z,32.42
2023-02-21T09:13:07.309Z,32.47
2023-02-21T09:15:34.898Z,33.24
2023-02-21T09:18:02.471Z,34.11
2023-02-21T09:20:30.161Z,33.93
2023-02-21T09:22:57.991Z,33.87
2023-02-21T09:25:28.725Z,34.68
2023-02-21T09:28:00.431Z,34.68
2023-02-21T09:30:29.653Z,34.43
2023-02-21T09:32:59.948Z,34.72
2023-02-21T09:35:30.506Z,34.61
2023-02-21T09:37:59.736Z,34.37
2023-02-21T09:40:58.575Z,34.72
2023-02-21T09:43:54.115Z,34.63
2023-02-21T09:46:33.847Z,35.12
2023-02-21T09:49:06.240Z,34.89
2023-02-21T09:51:41.661Z,34.76
2023-02-21T09:54:20.016Z,35.20
2023-02-21T09:56:50.355Z,34.13
2023-02-21T09:59:20.204Z,35.03
2023-02-21T10:02:14.140Z,34.49
2023-02-21T10:04:44.439Z,33.21
2023-02-21T10:07:38.241Z,33.89
2023-02-21T10:10:08.535Z,33.46
2023-02-21T10:12:53.552Z,34.41
2023-02-21T10:15:49.437Z,33.46
2023-02-21T10:18:22.884Z,35.05
2023-02-21T10:20:59.531Z,35.81
2023-02-21T10:23:33.745Z,35.48
2023-02-21T10:26:09.377Z,35.29
2023-02-21T10:28:39.494Z,35.26
2023-02-21T10:31:20.326Z,34.36
2023-02-21T10:33:47.969Z,35.90
2023-02-21T10:36:22.505Z,36.01
2023-02-21T10:39:01.208Z,36.21
2023-02-21T10:41:38.333Z,36.51
2023-02-21T10:44:14.630Z,35.96
2023-02-21T10:46:48.710Z,36.74
2023-02-21T10:49:29.153Z,36.67
2023-02-21T10:52:12.693Z,37.28
2023-02-21T10:54:40.478Z,36.48
2023-02-21T10:57:11.960Z,36.34
2023-02-21T10:59:42.691Z,35.49
2023-02-21T11:02:31.904Z,35.48
2023-02-21T11:05:16.245Z,35.94
2023-02-21T11:08:18.988Z,37.42
2023-02-21T11:10:48.954Z,36.12
2023-02-21T11:13:21.207Z,35.86
2023-02-21T11:16:10.280Z,35.95
2023-02-21T11:18:38.806Z,36.01
2023-02-21T11:21:22.804Z,35.23
2023-02-21T11:23:57.973Z,35.36
2023-02-21T11:26:26.803Z,34.71
2023-02-21T11:28:54.590Z,34.55
2023-02-21T11:31:33.787Z,34.63
2023-02-21T11:34:04.925Z,34.66
2023-02-21T11:36:45.952Z,35.11
2023-02-21T11:39:27.863Z,35.78
2023-02-21T11:41:58.057Z,35.60
2023-02-21T11:44:39.275Z,36.35
2023-02-21T11:47:23.057Z,35.84
2023-02-21T11:50:11.538Z,36.00
2023-02-21T11:52:46.039Z,36.24
2023-02-21T11:55:19.748Z,36.34
2023-02-21T11:58:02.858Z,36.47
2023-02-21T12:01:01.804Z,36.29
2023-02-21T12:03:59.242Z,36.61
2023-02-21T12:06:44.821Z,36.79
2023-02-21T12:09:20.473Z,36.75
2023-02-21T12:11:51.429Z,37.46
2023-02-21T12:14:46.373Z,36.53
2023-02-21T12:17:19.751Z,37.58
2023-02-21T12:19:53.004Z,38.28
2023-02-21T12:22:47.215Z,38.35
2023-02-21T12:25:27.377Z,39.50
2023-02-21T12:28:05.077Z,39.10
2023-02-21T12:31:08.686Z,38.58
2023-02-21T12:33:45.867Z,39.55
2023-02-21T12:36:38.233Z,39.63
2023-02-21T12:39:17.362Z,40.33
2023-02-21T12:41:45.177Z,39.90
2023-02-21T12:44:23.542Z,39.99
2023-02-21T12:47:00.303Z,39.13
2023-02-21T12:49:59.986Z,38.16
2023-02-21T12:52:35.340Z,39.60
2023-02-21T12:55:08.667Z,39.84
2023-02-21T12:58:01.107Z,39.28
2023-02-21T13:00:53.461Z,39.45
2023-02-21T13:03:51.857Z,40.47
2023-02-21T13:06:26.064Z,40.57
2023-02-21T13:09:15.260Z,42.20
2023-02-21T13:11:45.120Z,42.96
2023-02-21T13:14:19.582Z,42.90
2023-02-21T13:16:47.547Z,42.47
2023-02-21T13:19:16.477Z,43.43
2023-02-21T13:21:56.315Z,42.37
2023-02-21T13:24:47.423Z,42.99
2023-02-21T13:27:47.072Z,43.18
2023-02-21T13:30:19.550Z,43.06
2023-02-21T13:32:58.453Z,44.03
2023-02-21T13:35:32.140Z,45.25
2023-02-21T13:38:03.280Z,44.96
2023-02-21T13:40:41.278Z,45.98
2023-02-21T13:43:26.669Z,45.84
2023-02-21T13:45:54.822Z,46.14
2023-02-21T13:48:22.368Z,46.41
2023-02-21T13:51:02.231Z,47.96
2023-02-21T13:53:53.968Z,49.57
2023-02-21T13:56:21.695Z,49.93
2023-02-21T13:58:50.704Z,51.17
2023-02-21T14:01:42.990Z,52.02
2023-02-21T14:04:50.408Z,52.64
2023-02-21T14:07:18.057Z,54.69
2023-02-21T14:09:47.536Z,55.16
2023-02-21T14:12:17.712Z,54.59
2023-02-21T14:14:47.725Z,55.09
2023-02-21T14:17:15.837Z,55.16
2023-02-21T14:19:47.419Z,55.17
2023-02-21T14:22:25.297Z,55.21
2023-02-21T14:25:05.026Z,55.42
2023-02-21T14:27:35.359Z,56.34
2023-02-21T14:30:02.932Z,55.91
2023-02-21T14:32:51.382Z,55.88
2023-02-21T14:35:25.213Z,56.21
2023-02-21T14:37:58.708Z,56.25
2023-02-21T14:41:09.673Z,56.66
2023-02-21T14:43:58.293Z,57.37
2023-02-21T14:47:11.910Z,57.66
2023-02-21T14:49:57.028Z,57.85
2023-02-21T14:52:36.858Z,58.61
2023-02-21T14:55:46.055Z,58.50
2023-02-21T14:58:19.561Z,58.74
2023-02-21T15:01:05.415Z,59.20
2023-02-21T15:03:50.586Z,59.49
2023-02-21T15:06:23.790Z,59.80
2023-02-21T15:08:53.264Z,59.30
2023-02-21T15:11:26.003Z,59.68
2023-02-21T15:14:13.625Z,59.42
2023-02-21T15:16:53.213Z,59.61
2023-02-21T15:19:25.983Z,59.61
2023-02-21T15:22:15.586Z,59.65
2023-02-21T15:24:56.769Z,60.01
2023-02-21T15:27:26.816Z,59.64
2023-02-21T15:30:15.430Z,60.28
2023-02-21T15:32:44.372Z,60.31
2023-02-21T15:35:23.533Z,60.58
2023-02-21T15:37:51.665Z,60.91
2023-02-21T15:40:27.062Z,61.31
2023-02-21T15:42:58.780Z,61.51
2023-02-21T15:45:40.344Z,61.80
2023-02-21T15:48:08.384Z,62.29
2023-02-21T15:50:46.862Z,62.55
2023-02-21T15:53:23.193Z,63.01
2023-02-21T15:55:53.149Z,63.02
2023-02-21T15:58:27.152Z,63.22
2023-02-21T16:01:10.551Z,63.39
2023-02-21T16:03:43.566Z,64.23
2023-02-21T16:06:17.378Z,63.87
2023-02-21T16:09:24.383Z,63.56
2023-02-21T16:11:52.328Z,63.98
2023-02-21T16:15:00.270Z,63.84
2023-02-21T16:17:39.702Z,64.25
2023-02-21T16:20:13.414Z,64.91
2023-02-21T16:23:06.424Z,65.25
2023-02-21T16:25:33.519Z,65.30
2023-02-21T16:28:12.649Z,65.24
2023-02-21T16:30:40.458Z,65.61
2023-02-21T16:33:08.350Z,65.26
2023-02-21T16:35:37.269Z,65.59
2023-02-21T16:38:09.255Z,65.51
2023-02-21T16:40:39.856Z,65.72
2023-02-21T16:43:07.524Z,65.60
2023-02-21T16:45:35.168Z,65.06
2023-02-21T16:48:09.202Z,65.27
2023-02-21T16:50:39.956Z,65.04
2023-02-21T16:53:12.480Z,65.06
2023-02-21T16:55:43.813Z,65.07
2023-02-21T16:58:29.123Z,65.31
2023-02-21T17:01:02.539Z,65.00
2023-02-21T17:03:30.162Z,65.31
2023-02-21T17:05:59.986Z,65.62
2023-02-21T17:08:29.995Z,65.79
2023-02-21T17:10:58.809Z,66.22
2023-02-21T17:13:27.127Z,66.60
2023-02-21T17:15:54.960Z,66.63
2023-02-21T17:18:26.498Z,66.89
2023-02-21T17:20:54.152Z,66.59
2023-02-21T17:23:22.077Z,67.04
2023-02-21T17:25:49.822Z,67.19
2023-02-21T17:28:17.478Z,66.64
2023-02-21T17:30:47.588Z,67.08
2023-02-21T17:33:16.890Z,67.04
2023-02-21T17:35:50.038Z,66.37
2023-02-21T17:38:17.665Z,67.07
2023-02-21T17:40:46.508Z,66.56
2023-02-21T17:43:19.669Z,66.54
2023-02-21T17:45:47.353Z,67.21
2023-02-21T17:48:15.032Z,67.25
2023-02-21T17:50:49.574Z,67.55
2023-02-21T17:53:17.220Z,68.48
2023-02-21T17:55:44.848Z,68.64
2023-02-21T17:58:15.019Z,68.34
2023-02-21T18:00:43.114Z,68.92
2023-02-21T18:03:10.763Z,69.21
2023-02-21T18:05:40.014Z,69.46
2023-02-21T18:08:07.690Z,69.04
2023-02-21T18:10:35.311Z,69.29
2023-02-21T18:13:07.807Z,68.97
2023-02-21T18:15:35.471Z,69.19
2023-02-21T18:18:07.071Z,69.17
2023-02-21T18:20:35.848Z,68.91
2023-02-21T18:23:06.459Z,69.21
2023-02-21T18:25:35.522Z,70.15
2023-02-21T18:28:05.162Z,70.44
2023-02-21T18:30:32.807Z,70.77
2023-02-21T18:33:00.745Z,71.44
2023-02-21T18:35:28.445Z,72.42
2023-02-21T18:37:56.039Z,72.85
2023-02-21T18:40:34.296Z,73.30
2023-02-21T18:43:06.977Z,73.87
2023-02-21T18:45:35.076Z,74.32
2023-02-21T18:48:03.244Z,75.23
2023-02-21T18:50:30.837Z,75.31
2023-02-21T18:52:58.446Z,76.31
2023-02-21T18:55:28.285Z,75.66
2023-02-21T18:57:56.865Z,76.66
2023-02-21T19:00:25.766Z,76.97
2023-02-21T19:02:53.418Z,76.99
2023-02-21T19:05:23.690Z,77.60
2023-02-21T19:07:54.204Z,77.71
2023-02-21T19:10:27.183Z,78.43
2023-02-21T19:12:55.040Z,78.73
2023-02-21T19:15:25.050Z,78.95
2023-02-21T19:17:52.658Z,79.08
2023-02-21T19:20:20.505Z,79.29
2023-02-21T19:22:48.778Z,79.89
2023-02-21T19:25:18.116Z,80.16
2023-02-21T19:27:46.287Z,80.63
2023-02-21T19:30:15.185Z,80.98
2023-02-21T19:32:42.830Z,80.59
2023-02-21T19:35:10.552Z,79.92
2023-02-21T19:37:39.060Z,81.07
2023-02-21T19:40:08.026Z,80.87
2023-02-21T19:42:38.541Z,81.22
2023-02-21T19:45:06.472Z,80.86
2023-02-21T19:47:34.296Z,80.78
2023-02-21T19:50:01.919Z,81.83
2023-02-21T19:52:29.893Z,81.11
2023-02-21T19:54:57.566Z,81.07
2023-02-21T19:57:25.210Z,81.50
2023-02-21T19:59:52.972Z,82.28
2023-02-21T20:02:21.120Z,82.20
2023-02-21T20:04:49.600Z,82.45
2023-02-21T20:07:20.735Z,82.42
2023-02-21T20:09:48.370Z,82.02
2023-02-21T20:12:22.765Z,81.99
2023-02-21T20:14:51.262Z,82.43
2023-02-21T20:17:19.039Z,80.95
2023-02-21T20:19:46.880Z,80.70
2023-02-21T20:22:14.564Z,80.12
2023-02-21T20:24:45.810Z,80.15
2023-02-21T20:27:14.713Z,79.60
2023-02-21T20:29:42.338Z,79.81
2023-02-21T20:32:10.072Z,79.85
2023-02-21T20:34:40.828Z,79.55
2023-02-21T20:37:11.131Z,80.27
2023-02-21T20:39:42.086Z,80.40
2023-02-21T20:42:09.868Z,81.24
2023-02-21T20:44:39.475Z,81.18
2023-02-21T20:47:09.862Z,81.43
2023-02-21T20:49:38.919Z,82.18
2023-02-21T20:52:06.853Z,82.49
2023-02-21T20:54:38.594Z,82.88
2023-02-21T20:57:09.667Z,83.50
2023-02-21T20:59:41.569Z,83.04
2023-02-21T21:02:09.748Z,84.11
2023-02-21T21:04:42.432Z,83.70
2023-02-21T21:07:19.708Z,84.84
2023-02-21T21:09:50.600Z,83.13
2023-02-21T21:12:20.524Z,84.23
2023-02-21T21:14:53.106Z,84.61
2023-02-21T21:17:21.717Z,84.24
2023-02-21T21:19:50.350Z,82.98
2023-02-21T21:22:20.886Z,82.12
2023-02-21T21:24:48.848Z,80.99
2023-02-21T21:27:16.823Z,79.94
2023-02-21T21:29:45.985Z,79.61
2023-02-21T21:32:16.111Z,79.62
2023-02-21T21:34:48.788Z,79.01
2023-02-21T21:37:18.513Z,78.85
2023-02-21T21:39:49.320Z,78.75
2023-02-21T21:42:18.642Z,78.06
2023-02-21T21:44:51.944Z,78.14
2023-02-21T21:47:28.444Z,77.82
2023-02-21T21:49:56.360Z,77.66
2023-02-21T21:52:28.710Z,77.51
2023-02-21T21:54:57.034Z,77.60
2023-02-21T21:57:27.099Z,77.30
2023-02-21T21:59:55.634Z,76.97
2023-02-21T22:02:24.422Z,76.68
2023-02-21T22:04:53.776Z,76.20
2023-02-21T22:07:23.986Z,76.07
2023-02-21T22:09:51.820Z,75.68
2023-02-21T22:12:22.283Z,75.35
2023-02-21T22:14:50.308Z,75.58
2023-02-21T22:17:18.753Z,75.62
2023-02-21T22:19:50.609Z,75.23
2023-02-21T22:22:18.261Z,75.18
2023-02-21T22:24:46.188Z,74.78
2023-02-21T22:27:13.750Z,74.60
2023-02-21T22:29:42.806Z,74.97
2023-02-21T22:32:10.863Z,75.03
2023-02-21T22:34:38.991Z,74.92
2023-02-21T22:37:06.632Z,75.08
2023-02-21T22:39:34.250Z,75.06
2023-02-21T22:42:05.213Z,74.46
2023-02-21T22:44:32.848Z,74.63
2023-02-21T22:47:00.501Z,74.43
2023-02-21T22:49:28.882Z,74.62
2023-02-21T22:51:57.568Z,74.66
2023-02-21T22:54:26.140Z,74.67
2023-02-21T22:57:00.620Z,74.62
2023-02-21T22:59:28.264Z,74.32
2023-02-21T23:01:58.359Z,74.06
2023-02-21T23:04:36.046Z,73.94
2023-02-21T23:07:05.520Z,73.87
2023-02-21T23:09:36.887Z,74.26
2023-02-21T23:12:05.848Z,74.54
2023-02-21T23:14:34.988Z,74.55
2023-02-21T23:17:03.295Z,74.79
2023-02-21T23:19:32.231Z,74.73
2023-02-21T23:22:00.130Z,74.81
2023-02-21T23:24:28.468Z,74.76
2023-02-21T23:26:56.121Z,74.87
2023-02-21T23:29:25.892Z,75.12
2023-02-21T23:31:57.862Z,75.19
2023-02-21T23:34:40.343Z,75.26
2023-02-21T23:37:12.128Z,75.27
2023-02-21T23:39:40.927Z,75.35
2023-02-21T23:42:10.903Z,75.50
2023-02-21T23:44:41.265Z,75.77
2023-02-21T23:47:09.124Z,76.04
2023-02-21T23:49:40.661Z,76.08
2023-02-21T23:52:08.211Z,76.21
2023-02-21T23:54:35.779Z,76.37
2023-02-21T23:57:07.580Z,76.66
2023-02-21T23:59:35.653Z,76.97
